Time;durP1;ratioP1;P1;durP2;ratioP2;P2;SDS_P1;SDS_P2;PMS_P1;PMS_P2;Temp;Humidity;BMP_temperature;BMP_pressure;BME280_temperature;BME280_humidity;BME280_pressure;Samples;Min_cycle;Max_cycle;Signal;HPM_P1;HPM_P2
2021/01/25 00:01:07;;;;;;;10.70;5.32;;;3.10;99.90;;;;;;4145495;28;20049;-83
2021/01/25 00:03:08;;;;;;;9.77;4.93;;;3.10;99.90;;;;;;4146027;28;20033;-83
2021/01/25 00:05:09;;;;;;;11.57;5.78;;;3.10;99.90;;;;;;4179188;28;20421;-83
2021/01/25 00:07:10;;;;;;;10.02;4.38;;;3.00;99.90;;;;;;4155364;28;20037;-83
2021/01/25 00:09:11;;;;;;;8.32;4.90;;;3.10;99.90;;;;;;4162584;28;20129;-83
2021/01/25 00:11:12;;;;;;;12.95;5.30;;;3.10;99.90;;;;;;4160575;28;20042;-83
2021/01/25 00:13:13;;;;;;;6.47;4.13;;;3.00;99.90;;;;;;4145790;28;20037;-83
2021/01/25 00:15:14;;;;;;;7.05;4.32;;;3.10;99.90;;;;;;4145686;28;20394;-83
2021/01/25 00:17:15;;;;;;;7.63;4.97;;;3.10;99.90;;;;;;4161432;28;20045;-83
2021/01/25 00:19:15;;;;;;;7.97;4.68;;;3.10;99.90;;;;;;4162166;28;20033;-83
2021/01/25 00:21:17;;;;;;;12.07;4.78;;;3.10;99.90;;;;;;4150808;28;20038;-83
2021/01/25 00:23:17;;;;;;;7.95;4.10;;;3.10;99.90;;;;;;4155222;28;20042;-83
2021/01/25 00:25:18;;;;;;;9.75;4.93;;;3.10;99.90;;;;;;4143400;28;20535;-83
2021/01/25 00:27:18;;;;;;;8.77;4.95;;;3.10;99.90;;;;;;4161473;28;20034;-83
2021/01/25 00:29:19;;;;;;;8.45;4.75;;;3.10;99.90;;;;;;4145939;28;20125;-83
2021/01/25 00:31:20;;;;;;;8.57;4.30;;;3.10;99.90;;;;;;4145648;28;20109;-83
2021/01/25 00:33:20;;;;;;;7.75;4.53;;;3.10;99.90;;;;;;4146767;28;20034;-83
2021/01/25 00:35:21;;;;;;;6.88;4.28;;;3.10;99.90;;;;;;4144918;28;20033;-83
2021/01/25 00:37:22;;;;;;;11.77;4.10;;;3.00;99.90;;;;;;4137061;28;20053;-83
2021/01/25 00:39:24;;;;;;;7.15;4.20;;;3.10;99.90;;;;;;4158163;28;20048;-83
2021/01/25 00:41:25;;;;;;;;;;;3.00;99.90;;;;;;4149166;28;20033;-83
2021/01/25 00:43:25;;;;;;;7.85;4.15;;;3.00;99.90;;;;;;4167849;28;19999;-83
2021/01/25 00:45:26;;;;;;;8.25;3.88;;;3.10;99.90;;;;;;4146762;28;20378;-83
2021/01/25 00:47:26;;;;;;;7.35;4.53;;;3.10;99.90;;;;;;4152718;28;20102;-83
2021/01/25 00:49:27;;;;;;;5.82;3.35;;;3.10;99.90;;;;;;4161739;28;20049;-83
2021/01/25 00:51:28;;;;;;;7.05;3.88;;;3.10;99.90;;;;;;4177433;28;20387;-83
2021/01/25 00:53:28;;;;;;;8.77;4.05;;;3.10;99.90;;;;;;4159687;28;20034;-84
2021/01/25 00:55:29;;;;;;;7.57;4.18;;;3.00;99.90;;;;;;4176630;28;20040;-83
2021/01/25 00:57:41;;;;;;;7.20;3.58;;;3.10;99.90;;;;;;4161785;28;20037;-83
2021/01/25 00:59:43;;;;;;;6.57;3.28;;;3.10;99.90;;;;;;4148188;28;20026;-83
2021/01/25 01:01:44;;;;;;;9.00;3.70;;;3.00;99.90;;;;;;4165988;28;20171;-84
2021/01/25 01:03:44;;;;;;;8.02;4.30;;;3.10;99.90;;;;;;4159425;28;20761;-83
2021/01/25 01:05:45;;;;;;;5.55;3.53;;;3.00;99.90;;;;;;4160265;28;20111;-83
2021/01/25 01:07:45;;;;;;;8.15;3.65;;;3.00;99.90;;;;;;4145302;28;20418;-83
2021/01/25 01:09:46;;;;;;;8.25;3.80;;;3.00;99.90;;;;;;4131249;28;20034;-83
2021/01/25 01:11:47;;;;;;;5.97;3.85;;;3.10;99.90;;;;;;4178384;28;20028;-84
2021/01/25 01:13:48;;;;;;;8.00;4.03;;;3.00;99.90;;;;;;4158477;28;20034;-84
2021/01/25 01:15:48;;;;;;;9.35;3.78;;;2.90;99.90;;;;;;4134841;28;20042;-83
2021/01/25 01:17:49;;;;;;;8.07;3.83;;;2.90;99.90;;;;;;4144728;28;20542;-83
2021/01/25 01:19:49;;;;;;;7.78;3.70;;;2.90;99.90;;;;;;4152813;28;20523;-83
2021/01/25 01:21:50;;;;;;;8.15;3.65;;;3.00;99.90;;;;;;4178017;28;20033;-83
2021/01/25 01:23:51;;;;;;;8.70;4.28;;;2.90;99.90;;;;;;4172102;28;20029;-84
2021/01/25 01:25:52;;;;;;;10.25;4.07;;;2.90;99.90;;;;;;4162196;28;20038;-83
2021/01/25 01:27:53;;;;;;;11.20;3.97;;;2.90;99.90;;;;;;4157109;28;20121;-83
2021/01/25 01:29:54;;;;;;;8.35;4.28;;;2.90;99.90;;;;;;4128999;28;20101;-83
2021/01/25 01:31:54;;;;;;;10.60;4.10;;;2.90;99.90;;;;;;4145694;28;20058;-83
2021/01/25 01:33:55;;;;;;;7.57;3.60;;;2.90;99.90;;;;;;4143808;28;20026;-83
2021/01/25 01:35:55;;;;;;;6.85;4.60;;;2.90;99.90;;;;;;4165789;28;20124;-83
2021/01/25 01:37:56;;;;;;;10.32;4.30;;;2.80;99.90;;;;;;4149336;28;20033;-83
2021/01/25 01:39:56;;;;;;;9.60;4.00;;;2.80;99.90;;;;;;4165934;28;20591;-83
2021/01/25 01:41:57;;;;;;;8.05;3.80;;;2.80;99.90;;;;;;4161149;28;20038;-83
2021/01/25 01:44:10;;;;;;;6.70;3.50;;;2.80;99.90;;;;;;4169193;28;20404;-83
2021/01/25 01:46:11;;;;;;;5.95;3.03;;;2.80;99.90;;;;;;4168055;28;20613;-83
2021/01/25 01:48:43;;;;;;;7.00;3.60;;;2.80;99.90;;;;;;4161059;28;20093;-84
2021/01/25 01:50:44;;;;;;;5.07;3.33;;;2.80;99.90;;;;;;4161065;28;20049;-83
2021/01/25 01:52:47;;;;;;;7.07;3.97;;;2.80;99.90;;;;;;4164165;28;20033;-83
2021/01/25 01:55:12;;;;;;;6.97;3.58;;;2.80;99.90;;;;;;4149048;28;20042;-84
2021/01/25 01:57:13;;;;;;;7.97;4.05;;;2.80;99.90;;;;;;4173022;28;20051;-83
2021/01/25 01:59:13;;;;;;;7.50;4.13;;;2.90;99.90;;;;;;4163811;28;20033;-83
2021/01/25 02:01:14;;;;;;;7.82;4.05;;;2.80;99.90;;;;;;4164121;28;20033;-83
2021/01/25 02:03:21;;;;;;;7.80;3.88;;;2.80;99.90;;;;;;4152277;28;20048;-83
2021/01/25 02:05:23;;;;;;;8.05;4.40;;;2.70;99.90;;;;;;4165874;28;20544;-83
2021/01/25 02:07:24;;;;;;;7.27;3.73;;;2.80;99.90;;;;;;4167040;28;20026;-83
2021/01/25 02:09:26;;;;;;;8.50;4.35;;;2.80;99.90;;;;;;4161830;28;20268;-83
2021/01/25 02:11:29;;;;;;;14.55;4.75;;;2.80;99.90;;;;;;4163461;28;20037;-83
2021/01/25 02:13:32;;;;;;;10.70;4.80;;;2.70;99.90;;;;;;4160960;28;20041;-83
2021/01/25 02:15:33;;;;;;;11.75;4.22;;;2.70;99.90;;;;;;4163796;28;20044;-83
2021/01/25 02:17:33;;;;;;;6.72;3.97;;;2.70;99.90;;;;;;4167967;28;20500;-83
2021/01/25 02:19:57;;;;;;;7.70;4.32;;;2.80;99.90;;;;;;4168092;28;20038;-83
2021/01/25 02:22:18;;;;;;;10.80;3.85;;;2.80;99.90;;;;;;4143135;28;20038;-83
2021/01/25 02:24:31;;;;;;;6.40;4.40;;;2.80;99.90;;;;;;4147296;28;20050;-84
2021/01/25 02:26:47;;;;;;;8.10;4.43;;;2.80;99.90;;;;;;4152310;28;20088;-83
2021/01/25 02:28:48;;;;;;;8.20;4.22;;;2.80;99.90;;;;;;4165197;28;20029;-83
2021/01/25 02:30:49;;;;;;;8.18;4.22;;;2.80;99.90;;;;;;4174215;28;20025;-83
2021/01/25 02:32:52;;;;;;;6.57;3.95;;;2.90;99.90;;;;;;4141287;28;20473;-83
2021/01/25 02:34:54;;;;;;;6.20;4.18;;;2.90;99.90;;;;;;4155876;28;20092;-83
2021/01/25 02:36:58;;;;;;;8.77;4.72;;;2.90;99.90;;;;;;4163878;28;20630;-84
2021/01/25 02:39:01;;;;;;;8.43;4.68;;;2.90;99.90;;;;;;4166472;28;20060;-83
2021/01/25 02:41:03;;;;;;;7.40;4.20;;;2.90;99.90;;;;;;4163214;28;20038;-84
2021/01/25 02:43:05;;;;;;;6.78;3.97;;;3.00;99.90;;;;;;4154171;28;20638;-83
2021/01/25 02:45:07;;;;;;;8.93;4.13;;;3.00;99.90;;;;;;4150499;28;20032;-83
2021/01/25 02:47:09;;;;;;;7.00;3.77;;;3.10;99.90;;;;;;4158740;28;20029;-83
2021/01/25 02:49:11;;;;;;;6.05;3.78;;;3.10;99.90;;;;;;4162981;28;20033;-83
2021/01/25 02:51:13;;;;;;;6.25;3.58;;;3.10;99.90;;;;;;4162953;28;20033;-83
2021/01/25 02:53:13;;;;;;;7.18;3.70;;;3.10;99.90;;;;;;4161752;28;20570;-83
2021/01/25 02:55:14;;;;;;;8.00;3.47;;;3.20;99.90;;;;;;4162937;28;20022;-83
2021/01/25 02:57:16;;;;;;;6.00;3.40;;;3.20;99.90;;;;;;4192324;28;20029;-83
2021/01/25 02:59:17;;;;;;;6.37;3.27;;;3.20;99.90;;;;;;4156479;28;20056;-83
2021/01/25 03:01:18;;;;;;;8.88;4.18;;;3.20;99.90;;;;;;4167590;28;20563;-83
2021/01/25 03:03:19;;;;;;;5.07;3.15;;;3.20;99.90;;;;;;4136136;28;20114;-83
2021/01/25 03:05:20;;;;;;;5.35;3.22;;;3.20;99.90;;;;;;4164526;28;20037;-83
2021/01/25 03:07:21;;;;;;;6.10;3.45;;;3.20;99.90;;;;;;4162734;28;20525;-83
2021/01/25 03:09:22;;;;;;;7.70;3.45;;;3.20;99.90;;;;;;4163234;28;20111;-83
2021/01/25 03:11:23;;;;;;;6.82;3.10;;;3.20;99.90;;;;;;4170337;28;20064;-83
2021/01/25 03:13:29;;;;;;;8.45;3.42;;;3.20;99.90;;;;;;4138276;28;20034;-83
2021/01/25 03:15:33;;;;;;;7.15;4.03;;;3.20;99.90;;;;;;4179092;28;20029;-84
2021/01/25 03:17:34;;;;;;;10.45;4.72;;;3.20;99.90;;;;;;4162895;28;20616;-83
2021/01/25 03:19:35;;;;;;;7.60;3.65;;;3.20;99.90;;;;;;4163002;28;20037;-83
2021/01/25 03:21:35;;;;;;;8.60;3.72;;;3.20;99.90;;;;;;4140645;28;20034;-83
2021/01/25 03:23:38;;;;;;;7.63;3.83;;;3.20;99.90;;;;;;4146525;28;20115;-83
2021/01/25 03:25:39;;;;;;;7.43;3.33;;;3.20;99.90;;;;;;4154365;28;20041;-83
2021/01/25 03:27:39;;;;;;;4.70;3.05;;;3.10;99.90;;;;;;4171587;28;20227;-83
2021/01/25 03:29:40;;;;;;;5.63;2.95;;;3.20;99.90;;;;;;4174111;28;20045;-83
2021/01/25 03:31:40;;;;;;;5.90;3.55;;;3.30;99.90;;;;;;4148054;28;20030;-84
2021/01/25 03:33:41;;;;;;;6.88;3.63;;;3.20;99.90;;;;;;4163664;28;20033;-83
2021/01/25 03:35:42;;;;;;;6.32;4.10;;;3.20;99.90;;;;;;4146224;28;20091;-84
2021/01/25 03:37:43;;;;;;;7.00;3.70;;;3.20;99.90;;;;;;4174248;28;20033;-83
2021/01/25 03:39:44;;;;;;;8.55;4.53;;;3.20;99.90;;;;;;4162186;28;20071;-83
2021/01/25 03:41:46;;;;;;;4.88;3.30;;;3.10;99.90;;;;;;4170049;28;20103;-83
2021/01/25 03:43:47;;;;;;;;;;;3.20;99.90;;;;;;4162767;28;20030;-83
2021/01/25 03:45:47;;;;;;;5.45;3.30;;;3.20;99.90;;;;;;4153122;28;19921;-83
2021/01/25 03:47:48;;;;;;;5.82;3.53;;;3.20;99.90;;;;;;4140806;28;20036;-83
2021/01/25 03:49:49;;;;;;;6.50;3.97;;;3.20;99.90;;;;;;4187380;28;20489;-83
2021/01/25 03:51:49;;;;;;;9.63;3.72;;;3.20;99.90;;;;;;4168335;28;20033;-83
2021/01/25 03:53:50;;;;;;;7.30;3.88;;;3.30;99.90;;;;;;4151508;28;20030;-83
2021/01/25 03:55:51;;;;;;;6.50;3.55;;;3.20;99.90;;;;;;4159500;28;20037;-83
2021/01/25 03:57:51;;;;;;;5.45;3.20;;;3.30;99.90;;;;;;4158589;28;20033;-83
2021/01/25 03:59:52;;;;;;;5.50;3.22;;;3.30;99.90;;;;;;4162159;28;20025;-83
2021/01/25 04:01:53;;;;;;;7.65;3.58;;;3.30;99.90;;;;;;4174092;28;20029;-84
2021/01/25 04:03:54;;;;;;;6.72;3.67;;;3.30;99.90;;;;;;4159960;28;20076;-83
2021/01/25 04:05:54;;;;;;;7.50;3.53;;;3.30;99.90;;;;;;4137745;28;20030;-83
2021/01/25 04:07:55;;;;;;;6.50;3.80;;;3.30;99.90;;;;;;4165829;28;20048;-83
2021/01/25 04:09:55;;;;;;;6.10;3.38;;;3.30;99.90;;;;;;4161793;28;20037;-83
2021/01/25 04:11:56;;;;;;;5.03;3.22;;;3.30;99.90;;;;;;4161091;28;20037;-83
2021/01/25 04:13:56;;;;;;;6.05;3.80;;;3.40;99.90;;;;;;4186220;28;20044;-83
2021/01/25 04:15:57;;;;;;;5.68;3.38;;;3.40;99.90;;;;;;4161887;28;20052;-84
2021/01/25 04:17:59;;;;;;;5.57;3.97;;;3.40;99.90;;;;;;4169604;28;20044;-83
2021/01/25 04:19:59;;;;;;;6.05;3.58;;;3.40;99.90;;;;;;4148866;28;20068;-83
2021/01/25 04:22:00;;;;;;;4.32;2.83;;;3.30;99.90;;;;;;4170171;28;20034;-83
2021/01/25 04:24:01;;;;;;;5.80;3.30;;;3.40;99.90;;;;;;4161872;28;20413;-83
2021/01/25 04:26:02;;;;;;;5.63;3.22;;;3.40;99.90;;;;;;4148760;28;20602;-83
2021/01/25 04:28:08;;;;;;;4.65;2.97;;;3.30;99.90;;;;;;4165778;28;20033;-83
2021/01/25 04:30:11;;;;;;;5.38;3.58;;;3.40;99.90;;;;;;4145744;28;20048;-83
2021/01/25 04:32:17;;;;;;;;;;;3.40;99.90;;;;;;4164870;28;20049;-83
2021/01/25 04:34:25;;;;;;;6.07;2.90;;;3.40;99.90;;;;;;4162123;28;19910;-83
2021/01/25 04:36:27;;;;;;;5.78;3.42;;;3.40;99.90;;;;;;4168730;28;20116;-83
2021/01/25 04:38:39;;;;;;;5.93;3.65;;;3.40;99.90;;;;;;4143294;28;20041;-83
2021/01/25 04:40:39;;;;;;;7.82;3.75;;;3.40;99.90;;;;;;4154876;28;20128;-83
2021/01/25 04:42:40;;;;;;;5.63;3.42;;;3.40;99.90;;;;;;4153345;28;20045;-83
2021/01/25 04:44:42;;;;;;;8.25;3.55;;;3.40;99.90;;;;;;4145665;28;20034;-83
2021/01/25 04:46:44;;;;;;;4.88;2.92;;;3.40;99.90;;;;;;4143153;28;20030;-83
2021/01/25 04:48:45;;;;;;;8.63;3.72;;;3.40;99.90;;;;;;4170622;28;20544;-83
2021/01/25 04:50:47;;;;;;;5.15;3.47;;;3.40;99.90;;;;;;4152008;28;20094;-83
2021/01/25 04:52:48;;;;;;;6.28;3.78;;;3.40;99.90;;;;;;4145096;28;20486;-83
2021/01/25 04:54:51;;;;;;;5.57;3.25;;;3.30;99.90;;;;;;4145307;28;20041;-83
2021/01/25 04:56:53;;;;;;;5.82;3.17;;;3.30;99.90;;;;;;4145060;28;20132;-83
2021/01/25 04:58:54;;;;;;;5.93;3.60;;;3.30;99.90;;;;;;4177979;28;20025;-83
2021/01/25 05:00:55;;;;;;;5.68;3.20;;;3.20;99.90;;;;;;4147022;28;20034;-83
2021/01/25 05:02:55;;;;;;;6.10;3.28;;;3.20;99.90;;;;;;4169184;28;20033;-83
2021/01/25 05:04:56;;;;;;;6.13;3.30;;;3.20;99.90;;;;;;4161779;28;20036;-83
2021/01/25 05:06:57;;;;;;;5.20;3.50;;;3.30;99.90;;;;;;4144762;28;20088;-83
2021/01/25 05:08:57;;;;;;;4.75;3.15;;;3.30;99.90;;;;;;4177013;28;20052;-83
2021/01/25 05:11:19;;;;;;;5.85;3.47;;;3.30;99.90;;;;;;4167400;28;20112;-83
2021/01/25 05:13:24;;;;;;;5.97;3.53;;;3.30;99.90;;;;;;4167435;28;20036;-83
2021/01/25 05:15:29;;;;;;;6.85;3.75;;;3.30;99.90;;;;;;4146144;28;20038;-83
2021/01/25 05:17:30;;;;;;;6.38;3.45;;;3.30;99.90;;;;;;4145437;28;20037;-83
2021/01/25 05:19:31;;;;;;;4.80;3.17;;;3.30;99.90;;;;;;4160347;28;20037;-83
2021/01/25 05:21:42;;;;;;;5.90;3.17;;;3.30;99.90;;;;;;4169510;28;20048;-83
2021/01/25 05:23:42;;;;;;;5.18;3.40;;;3.40;99.90;;;;;;4145954;28;20567;-83
2021/01/25 05:25:43;;;;;;;4.53;3.25;;;3.40;99.90;;;;;;4177808;28;20153;-83
2021/01/25 05:27:44;;;;;;;6.00;3.20;;;3.40;99.90;;;;;;4165159;28;20030;-83
2021/01/25 05:29:45;;;;;;;6.22;3.42;;;3.40;99.90;;;;;;4163797;28;20097;-83
2021/01/25 05:31:50;;;;;;;5.38;3.15;;;3.40;99.90;;;;;;4164272;28;20464;-83
2021/01/25 05:33:52;;;;;;;5.00;3.15;;;3.40;99.90;;;;;;4165630;28;20582;-84
2021/01/25 05:35:54;;;;;;;6.72;3.70;;;3.40;99.90;;;;;;4138324;28;20093;-83
2021/01/25 05:37:57;;;;;;;6.50;3.63;;;3.40;99.90;;;;;;4147590;28;20053;-83
2021/01/25 05:39:58;;;;;;;6.00;3.55;;;3.30;99.90;;;;;;4177404;28;20389;-83
2021/01/25 05:42:13;;;;;;;7.97;3.85;;;3.30;99.90;;;;;;4153097;28;20029;-83
2021/01/25 05:44:14;;;;;;;6.63;3.90;;;3.30;99.90;;;;;;4177925;28;20036;-83
2021/01/25 05:46:18;;;;;;;9.35;3.95;;;3.30;99.90;;;;;;4146966;28;20730;-83
2021/01/25 05:48:18;;;;;;;6.25;3.25;;;3.20;99.90;;;;;;4148286;28;20030;-83
2021/01/25 05:50:29;;;;;;;5.18;3.22;;;3.30;99.90;;;;;;4174618;28;20080;-83
2021/01/25 05:52:43;;;;;;;8.15;4.25;;;3.30;99.90;;;;;;4163310;28;20085;-83
2021/01/25 05:54:43;;;;;;;5.88;3.80;;;3.30;99.90;;;;;;4157652;28;20033;-83
2021/01/25 05:56:44;;;;;;;5.32;3.58;;;3.30;99.90;;;;;;4165655;28;20040;-83
2021/01/25 05:58:44;;;;;;;7.03;4.25;;;3.30;99.90;;;;;;4171789;28;20103;-83
2021/01/25 06:00:45;;;;;;;8.07;4.45;;;3.30;99.90;;;;;;4164227;28;20049;-83
2021/01/25 06:02:47;;;;;;;7.10;3.83;;;3.30;99.90;;;;;;4162922;28;20700;-83
2021/01/25 06:04:48;;;;;;;6.65;3.95;;;3.40;99.90;;;;;;4173937;28;20040;-83
2021/01/25 06:06:58;;;;;;;5.75;3.25;;;3.40;99.90;;;;;;4147448;28;20049;-83
2021/01/25 06:09:05;;;;;;;5.43;3.35;;;3.40;99.90;;;;;;4166739;28;20097;-83
2021/01/25 06:11:27;;;;;;;7.75;3.90;;;3.40;99.90;;;;;;4166938;28;20428;-84
2021/01/25 06:13:58;;;;;;;4.10;2.95;;;3.40;99.90;;;;;;4146749;28;20570;-83
2021/01/25 06:16:00;;;;;;;7.18;3.53;;;3.50;99.90;;;;;;4170769;28;20045;-83
2021/01/25 06:18:00;;;;;;;5.55;3.22;;;3.50;99.90;;;;;;4154343;28;20038;-83
2021/01/25 06:20:06;;;;;;;4.93;2.95;;;3.50;99.90;;;;;;4163383;28;20158;-83
2021/01/25 06:22:09;;;;;;;4.35;3.22;;;3.50;99.90;;;;;;4140814;28;20514;-83
2021/01/25 06:24:11;;;;;;;6.22;3.17;;;3.50;99.90;;;;;;4168388;28;20036;-83
2021/01/25 06:26:45;;;;;;;6.40;3.63;;;3.50;99.90;;;;;;4162765;28;20117;-83
2021/01/25 06:28:53;;;;;;;4.72;3.03;;;3.50;99.90;;;;;;4145024;28;20030;-83
2021/01/25 06:30:56;;;;;;;4.88;3.00;;;3.50;99.90;;;;;;4167726;28;20057;-83
2021/01/25 06:32:58;;;;;;;5.65;3.20;;;3.50;99.90;;;;;;4141892;28;20037;-83
2021/01/25 06:35:05;;;;;;;6.43;2.92;;;3.50;99.90;;;;;;4169943;28;20303;-83
2021/01/25 06:37:09;;;;;;;7.85;3.65;;;3.50;99.90;;;;;;4162946;28;20021;-83
2021/01/25 06:39:24;;;;;;;4.57;3.00;;;3.50;99.90;;;;;;4137450;28;20040;-83
2021/01/25 06:41:39;;;;;;;5.63;3.00;;;3.50;99.90;;;;;;4162725;28;20099;-84
2021/01/25 06:43:48;;;;;;;5.47;3.53;;;3.50;99.90;;;;;;4147528;28;20132;-83
2021/01/25 06:45:48;;;;;;;6.18;3.22;;;3.50;99.90;;;;;;4151701;28;20045;-83
2021/01/25 06:48:01;;;;;;;5.82;3.78;;;3.50;99.90;;;;;;4176696;28;20458;-83
2021/01/25 06:50:04;;;;;;;6.85;3.88;;;3.50;99.90;;;;;;4148893;28;20029;-83
2021/01/25 06:52:09;;;;;;;8.90;4.50;;;3.50;99.90;;;;;;4159360;28;20132;-83
2021/01/25 06:54:23;;;;;;;8.38;4.40;;;3.40;99.90;;;;;;4149746;28;20029;-83
2021/01/25 06:56:24;;;;;;;7.40;4.30;;;3.40;99.90;;;;;;4166004;28;20034;-83
2021/01/25 06:58:31;;;;;;;8.05;4.05;;;3.40;99.90;;;;;;4161544;28;20041;-83
2021/01/25 07:00:36;;;;;;;8.18;4.28;;;3.40;99.90;;;;;;4173664;28;20083;-83
2021/01/25 07:03:04;;;;;;;5.90;4.13;;;3.40;99.90;;;;;;4151702;28;20038;-83
2021/01/25 07:05:09;;;;;;;7.47;4.57;;;3.40;99.90;;;;;;4146417;28;20057;-83
2021/01/25 07:07:23;;;;;;;7.55;4.35;;;3.40;99.90;;;;;;4161006;28;20092;-83
2021/01/25 07:09:34;;;;;;;8.15;4.25;;;3.40;99.90;;;;;;4133867;28;20332;-83
2021/01/25 07:11:35;;;;;;;8.43;4.55;;;3.40;99.90;;;;;;4145877;28;20421;-83
2021/01/25 07:13:36;;;;;;;8.55;4.90;;;3.30;99.90;;;;;;4157675;28;20037;-83
2021/01/25 07:15:37;;;;;;;8.47;4.30;;;3.30;99.90;;;;;;4158019;28;578497;-83
2021/01/25 07:17:40;;;;;;;8.25;4.28;;;3.30;99.90;;;;;;4162799;28;20051;-83
2021/01/25 07:19:49;;;;;;;10.25;4.57;;;3.40;99.90;;;;;;4163678;28;20056;-83
2021/01/25 07:21:58;;;;;;;9.55;5.55;;;3.40;99.90;;;;;;4159162;28;20042;-83
2021/01/25 07:24:01;;;;;;;11.15;6.75;;;3.40;99.90;;;;;;4166303;28;20033;-83
2021/01/25 07:26:02;;;;;;;13.52;6.82;;;3.30;99.90;;;;;;4147337;28;20093;-83
2021/01/25 07:28:04;;;;;;;14.82;7.70;;;3.40;99.90;;;;;;4170971;28;20443;-83
2021/01/25 07:30:17;;;;;;;14.40;7.50;;;3.40;99.90;;;;;;4150399;28;20497;-83
2021/01/25 07:32:25;;;;;;;13.43;6.68;;;3.40;99.90;;;;;;4147870;28;20493;-83
2021/01/25 07:34:30;;;;;;;14.65;6.82;;;3.40;99.90;;;;;;4179595;28;20033;-83
2021/01/25 07:36:41;;;;;;;9.73;5.80;;;3.40;99.90;;;;;;4170319;28;20470;-83
2021/01/25 07:38:52;;;;;;;10.35;6.00;;;3.40;99.90;;;;;;4132845;28;20065;-83
2021/01/25 07:40:57;;;;;;;12.40;5.90;;;3.40;99.90;;;;;;4147352;28;20042;-84
2021/01/25 07:43:06;;;;;;;9.20;5.93;;;3.40;99.90;;;;;;4164553;28;20056;-83
2021/01/25 07:45:07;;;;;;;10.75;6.57;;;3.30;99.90;;;;;;4146946;28;20037;-83
2021/01/25 07:47:08;;;;;;;12.80;6.47;;;3.40;99.90;;;;;;4146789;28;20437;-83
2021/01/25 07:49:25;;;;;;;18.05;8.23;;;3.40;99.90;;;;;;4163281;28;20117;-84
2021/01/25 07:51:35;;;;;;;16.45;7.63;;;3.30;99.90;;;;;;4162661;28;20037;-83
2021/01/25 07:53:42;;;;;;;16.65;8.65;;;3.30;99.90;;;;;;4148285;28;20533;-83
2021/01/25 07:55:53;;;;;;;19.00;9.45;;;3.30;99.90;;;;;;4156221;28;20525;-83
2021/01/25 07:58:15;;;;;;;18.67;9.32;;;3.30;99.90;;;;;;4163859;28;20059;-83
2021/01/25 08:00:23;;;;;;;13.70;8.23;;;3.40;99.90;;;;;;4154422;28;20041;-83
2021/01/25 08:02:26;;;;;;;12.93;7.47;;;3.40;99.90;;;;;;4166720;28;20098;-83
2021/01/25 08:04:28;;;;;;;;;;;3.30;99.90;;;;;;4161869;28;20037;-83
2021/01/25 08:06:34;;;;;;;13.88;8.45;;;3.30;99.90;;;;;;4146718;28;20432;-83
2021/01/25 08:08:36;;;;;;;14.73;9.13;;;3.30;99.90;;;;;;4162935;28;20037;-83
2021/01/25 08:10:43;;;;;;;14.57;8.90;;;3.30;99.90;;;;;;4160949;28;20029;-83
2021/01/25 08:12:54;;;;;;;13.05;8.10;;;3.30;99.90;;;;;;4162199;28;20084;-83
2021/01/25 08:15:00;;;;;;;12.35;8.23;;;3.30;99.90;;;;;;4161480;28;20516;-83
2021/01/25 08:17:16;;;;;;;14.32;8.27;;;3.30;99.90;;;;;;4165968;28;20041;-83
2021/01/25 08:19:27;;;;;;;11.45;7.32;;;3.30;99.90;;;;;;4138803;28;20030;-83
2021/01/25 08:21:33;;;;;;;17.38;8.35;;;3.30;99.90;;;;;;4178396;28;20079;-83
2021/01/25 08:23:46;;;;;;;14.60;9.52;;;3.20;99.90;;;;;;4154974;28;20963;-83
2021/01/25 08:25:56;;;;;;;15.90;8.70;;;3.20;99.90;;;;;;4172360;28;20040;-84
2021/01/25 08:28:18;;;;;;;15.75;9.85;;;3.20;99.90;;;;;;4163274;28;20121;-83
2021/01/25 08:30:22;;;;;;;16.85;9.90;;;3.20;99.90;;;;;;4147771;28;20522;-83
2021/01/25 08:32:27;;;;;;;16.40;9.82;;;3.20;99.90;;;;;;4149732;28;20030;-83
2021/01/25 08:34:31;;;;;;;15.95;8.95;;;3.20;99.90;;;;;;4164191;28;20064;-83
2021/01/25 08:36:36;;;;;;;14.23;9.32;;;3.10;99.90;;;;;;4149129;28;20042;-83
2021/01/25 08:38:41;;;;;;;19.95;9.48;;;3.10;99.90;;;;;;4163026;28;20548;-83
2021/01/25 08:40:42;;;;;;;16.52;9.65;;;3.10;99.90;;;;;;4171178;28;20036;-82
2021/01/25 08:42:43;;;;;;;17.00;9.38;;;3.10;99.90;;;;;;4150654;28;20045;-83
2021/01/25 08:45:06;;;;;;;14.27;8.82;;;3.10;99.90;;;;;;4164159;28;20465;-84
2021/01/25 08:47:23;;;;;;;16.55;8.77;;;3.10;99.90;;;;;;4143408;28;20053;-83
2021/01/25 08:49:32;;;;;;;14.60;9.10;;;3.10;99.90;;;;;;4170141;28;20033;-83
2021/01/25 08:51:34;;;;;;;14.77;9.55;;;3.20;99.90;;;;;;4146434;28;20029;-83
2021/01/25 08:53:36;;;;;;;16.38;10.15;;;3.20;99.90;;;;;;4164240;28;20116;-83
2021/01/25 08:55:37;;;;;;;15.48;9.98;;;3.20;99.90;;;;;;4160365;28;20550;-83
2021/01/25 08:57:42;;;;;;;17.08;10.23;;;3.20;99.90;;;;;;4169289;28;20034;-83
2021/01/25 08:59:44;;;;;;;14.50;9.25;;;3.20;99.90;;;;;;4170867;28;20120;-83
2021/01/25 09:01:51;;;;;;;17.63;9.68;;;3.20;99.90;;;;;;4164608;28;20148;-83
2021/01/25 09:04:00;;;;;;;18.98;10.05;;;3.30;99.90;;;;;;4147119;28;20072;-83
2021/01/25 09:06:04;;;;;;;15.63;9.73;;;3.30;99.90;;;;;;4157568;28;20040;-83
2021/01/25 09:08:08;;;;;;;17.98;10.27;;;3.40;99.90;;;;;;4155040;28;20060;-83
2021/01/25 09:10:15;;;;;;;15.15;9.32;;;3.50;99.90;;;;;;4175372;28;20036;-83
2021/01/25 09:12:19;;;;;;;19.50;9.70;;;3.60;99.90;;;;;;4152257;28;20301;-83
2021/01/25 09:14:22;;;;;;;16.90;10.23;;;3.70;99.90;;;;;;4166340;28;20029;-83
2021/01/25 09:16:22;;;;;;;;;;;3.80;99.90;;;;;;4150679;28;20124;-83
2021/01/25 09:18:23;;;;;;;14.98;9.70;;;4.00;99.90;;;;;;4155059;28;19909;-83
2021/01/25 09:20:24;;;;;;;16.35;9.80;;;4.10;99.90;;;;;;4174958;28;20041;-84
2021/01/25 09:22:26;;;;;;;13.52;8.95;;;4.30;99.90;;;;;;4151821;28;20048;-83
2021/01/25 09:24:28;;;;;;;;;;;4.50;99.90;;;;;;4174304;28;20040;-83
2021/01/25 09:26:29;;;;;;;15.88;8.80;;;4.60;99.90;;;;;;4151436;28;19914;-83
2021/01/25 09:28:31;;;;;;;13.73;9.32;;;4.80;99.90;;;;;;4158584;28;20163;-83
2021/01/25 09:30:32;;;;;;;17.63;10.65;;;5.10;99.90;;;;;;4160462;28;20501;-83
2021/01/25 09:32:35;;;;;;;15.00;9.80;;;5.20;99.90;;;;;;4146121;28;20030;-83
2021/01/25 09:34:49;;;;;;;15.07;8.80;;;5.50;99.90;;;;;;4164331;28;20199;-84
2021/01/25 09:36:50;;;;;;;13.60;8.88;;;5.70;99.90;;;;;;4161085;28;20038;-83
2021/01/25 09:38:51;;;;;;;12.68;8.10;;;5.90;99.90;;;;;;4146196;28;20038;-83
2021/01/25 09:40:52;;;;;;;12.43;7.80;;;6.00;99.90;;;;;;4159075;28;20037;-84
2021/01/25 09:42:53;;;;;;;12.13;8.23;;;6.10;99.90;;;;;;4162333;28;20080;-84
2021/01/25 09:44:54;;;;;;;11.77;8.30;;;6.20;99.90;;;;;;4158356;28;20049;-84
2021/01/25 09:46:57;;;;;;;10.90;7.25;;;6.30;99.90;;;;;;4167271;28;20029;-84
2021/01/25 09:48:57;;;;;;;18.33;9.20;;;6.40;99.90;;;;;;4156233;28;20052;-84
2021/01/25 09:50:59;;;;;;;9.57;6.57;;;6.50;99.90;;;;;;4151010;28;20117;-84
2021/01/25 09:53:06;;;;;;;11.50;6.40;;;6.50;99.90;;;;;;4182532;28;20083;-85
2021/01/25 09:55:08;;;;;;;13.80;8.15;;;6.50;99.90;;;;;;4149798;28;20080;-84
2021/01/25 09:57:14;;;;;;;12.38;7.38;;;6.60;99.90;;;;;;4173414;28;20485;-84
2021/01/25 09:59:16;;;;;;;13.45;7.38;;;6.60;99.90;;;;;;4163872;28;20034;-84
2021/01/25 10:01:17;;;;;;;11.02;8.02;;;6.70;99.90;;;;;;4144474;28;20117;-84
2021/01/25 10:03:19;;;;;;;11.57;7.38;;;6.70;99.90;;;;;;4160859;28;20033;-84
2021/01/25 10:05:22;;;;;;;11.23;7.28;;;6.70;99.90;;;;;;4160050;28;20030;-84
2021/01/25 10:07:24;;;;;;;;;;;6.80;99.90;;;;;;4147334;28;20577;-84
2021/01/25 10:09:34;;;;;;;10.63;6.80;;;6.80;99.90;;;;;;4168875;28;19928;-84
2021/01/25 10:11:34;;;;;;;12.10;7.88;;;6.80;99.90;;;;;;4135136;28;20465;-84
2021/01/25 10:13:44;;;;;;;11.70;7.38;;;6.80;99.90;;;;;;4167535;28;20037;-84
2021/01/25 10:15:44;;;;;;;11.52;7.30;;;6.80;99.90;;;;;;4166016;28;20033;-84
2021/01/25 10:17:56;;;;;;;10.13;7.38;;;6.80;99.90;;;;;;4182220;28;20112;-84
2021/01/25 10:19:58;;;;;;;11.85;7.97;;;6.70;99.90;;;;;;4163981;28;20037;-84
2021/01/25 10:21:59;;;;;;;12.95;8.43;;;6.80;99.90;;;;;;4165725;28;20389;-84
2021/01/25 10:24:01;;;;;;;14.07;8.50;;;6.70;99.90;;;;;;4169296;28;20476;-84
2021/01/25 10:26:02;;;;;;;17.33;8.55;;;6.60;99.90;;;;;;4179201;28;20029;-84
2021/01/25 10:28:19;;;;;;;12.45;8.10;;;6.60;99.90;;;;;;4169372;28;20037;-84
2021/01/25 10:30:23;;;;;;;11.82;7.93;;;6.50;99.90;;;;;;4156354;28;20038;-84
2021/01/25 10:32:34;;;;;;;13.63;8.10;;;6.60;99.90;;;;;;4144115;28;20062;-84
2021/01/25 10:34:42;;;;;;;12.82;8.30;;;6.50;99.90;;;;;;4167970;28;20044;-84
2021/01/25 10:36:42;;;;;;;15.75;8.70;;;6.50;99.90;;;;;;4141740;28;20044;-84
2021/01/25 10:38:44;;;;;;;13.00;8.43;;;6.50;99.90;;;;;;4163536;28;20077;-83
2021/01/25 10:40:45;;;;;;;14.25;9.13;;;6.40;99.90;;;;;;4147194;28;20038;-84
2021/01/25 10:42:51;;;;;;;13.05;8.80;;;6.40;99.90;;;;;;4172849;28;20861;-83
2021/01/25 10:45:01;;;;;;;16.58;8.73;;;6.30;99.90;;;;;;4160017;28;20123;-84
2021/01/25 10:47:18;;;;;;;18.27;9.45;;;6.30;99.90;;;;;;4153469;28;20033;-84
2021/01/25 10:49:21;;;;;;;13.70;9.00;;;6.20;99.90;;;;;;4165698;28;20025;-83
2021/01/25 10:51:23;;;;;;;17.88;9.93;;;6.20;99.90;;;;;;4166122;28;20559;-84
2021/01/25 10:53:25;;;;;;;;;;;6.20;99.90;;;;;;4155200;28;20030;-84